createdAt,value
2023-03-29T00:01:11.843Z,8.30
2023-03-29T00:05:16.093Z,12.38
2023-03-29T00:08:59.625Z,8.13
2023-03-29T00:12:42.573Z,6.35
2023-03-29T00:16:32.184Z,10.57
2023-03-29T00:20:18.969Z,9.70
2023-03-29T00:24:02.148Z,11.43
2023-03-29T00:27:43.895Z,10.75
2023-03-29T00:31:26.511Z,12.38
2023-03-29T00:35:09.110Z,11.32
2023-03-29T00:38:50.989Z,12.98
2023-03-29T00:42:32.725Z,11.02
2023-03-29T00:46:15.359Z,8.98
2023-03-29T00:50:01.680Z,9.20
2023-03-29T00:53:48.769Z,9.77
2023-03-29T00:57:31.275Z,15.20
2023-03-29T01:01:19.511Z,8.65
2023-03-29T01:05:25.952Z,12.52
2023-03-29T01:09:12.581Z,9.85
2023-03-29T01:13:01.920Z,8.02
2023-03-29T01:16:43.677Z,6.78
2023-03-29T01:20:43.304Z,9.73
2023-03-29T01:24:50.421Z,7.28
2023-03-29T01:28:43.720Z,12.48
2023-03-29T01:32:35.005Z,10.57
2023-03-29T01:36:23.353Z,7.55
2023-03-29T01:40:06.322Z,9.65
2023-03-29T01:44:11.165Z,7.07
2023-03-29T01:48:03.737Z,9.45
2023-03-29T01:51:53.355Z,6.13
2023-03-29T01:55:41.460Z,6.05
2023-03-29T01:59:29.615Z,9.40
2023-03-29T02:03:15.077Z,9.18
2023-03-29T02:06:59.428Z,6.43
2023-03-29T02:10:41.716Z,8.32
2023-03-29T02:14:24.871Z,8.57
2023-03-29T02:18:07.150Z,7.15
2023-03-29T02:22:07.326Z,4.50
2023-03-29T02:25:53.565Z,6.00
2023-03-29T02:29:35.425Z,6.18
2023-03-29T02:33:23.935Z,7.93
2023-03-29T02:37:11.772Z,6.85
2023-03-29T02:40:55.604Z,4.03
2023-03-29T02:44:40.759Z,3.85
2023-03-29T02:48:25.340Z,4.78
2023-03-29T02:52:12.454Z,5.18
2023-03-29T02:55:55.423Z,9.18
2023-03-29T02:59:38.627Z,4.63
2023-03-29T03:03:20.771Z,5.78
2023-03-29T03:07:05.188Z,5.67
2023-03-29T03:10:47.597Z,5.97
2023-03-29T03:14:29.668Z,8.43
2023-03-29T03:18:12.621Z,6.82
2023-03-29T03:21:54.329Z,6.57
2023-03-29T03:25:36.221Z,6.03
2023-03-29T03:29:18.023Z,7.80
2023-03-29T03:33:00.170Z,5.80
2023-03-29T03:36:42.003Z,4.85
2023-03-29T03:40:24.088Z,5.10
2023-03-29T03:44:06.930Z,5.53
2023-03-29T03:47:49.787Z,5.00
2023-03-29T03:51:32.116Z,6.28
2023-03-29T03:55:14.409Z,6.63
2023-03-29T03:58:57.006Z,4.57
2023-03-29T04:02:38.808Z,7.13
2023-03-29T04:06:20.636Z,6.47
2023-03-29T04:10:02.519Z,5.35
2023-03-29T04:13:44.335Z,4.07
2023-03-29T04:17:26.175Z,8.27
2023-03-29T04:21:07.909Z,5.30
2023-03-29T04:24:49.625Z,5.63
2023-03-29T04:28:31.329Z,5.45
2023-03-29T04:32:13.085Z,9.63
2023-03-29T04:35:54.896Z,6.18
2023-03-29T04:39:37.882Z,6.03
2023-03-29T04:43:20.263Z,6.75
2023-03-29T04:47:02.049Z,5.50
2023-03-29T04:50:47.803Z,6.32
2023-03-29T04:54:29.573Z,5.72
2023-03-29T04:58:11.577Z,9.02
2023-03-29T05:01:54.742Z,4.72
2023-03-29T05:09:18.184Z,6.70
2023-03-29T05:12:59.964Z,6.13
2023-03-29T05:16:42.290Z,6.40
2023-03-29T05:20:25.040Z,4.47
2023-03-29T05:24:09.935Z,6.68
2023-03-29T05:27:52.164Z,5.38
2023-03-29T05:31:34.112Z,6.72
2023-03-29T05:35:16.170Z,6.10
2023-03-29T05:38:57.964Z,5.82
2023-03-29T05:42:39.811Z,5.68
2023-03-29T05:46:21.668Z,13.18
2023-03-29T05:50:03.902Z,10.50
2023-03-29T05:53:45.795Z,8.80
2023-03-29T05:57:27.582Z,8.98
2023-03-29T06:01:17.958Z,8.75
2023-03-29T06:04:59.902Z,7.75
2023-03-29T06:08:42.036Z,8.25
2023-03-29T06:12:24.872Z,6.50
2023-03-29T06:16:07.336Z,7.00
2023-03-29T06:19:49.100Z,6.45
2023-03-29T06:23:30.984Z,6.72
2023-03-29T06:27:12.873Z,5.45
2023-03-29T06:30:56.536Z,5.82
2023-03-29T06:34:38.766Z,5.80
2023-03-29T06:38:23.437Z,6.47
2023-03-29T06:42:20.028Z,5.80
2023-03-29T06:46:02.971Z,4.63
2023-03-29T06:49:44.775Z,5.05
2023-03-29T06:53:27.287Z,3.80
2023-03-29T06:57:09.253Z,3.10
2023-03-29T07:00:51.682Z,2.95
2023-03-29T07:04:35.177Z,2.00
2023-03-29T07:08:17.145Z,2.05
2023-03-29T07:11:59.731Z,1.88
2023-03-29T07:15:43.271Z,3.75
2023-03-29T07:19:27.294Z,1.60
2023-03-29T07:23:09.636Z,1.98
2023-03-29T07:27:03.147Z,2.20
2023-03-29T07:30:46.438Z,1.67
2023-03-29T07:34:30.025Z,1.45
2023-03-29T07:38:12.014Z,1.90
2023-03-29T07:41:56.612Z,3.13
2023-03-29T07:45:40.679Z,2.55
2023-03-29T07:49:22.507Z,1.38
2023-03-29T07:53:04.491Z,4.10
2023-03-29T07:56:47.652Z,1.90
2023-03-29T08:04:11.314Z,1.80
2023-03-29T08:07:53.100Z,2.00
2023-03-29T08:11:34.843Z,2.30
2023-03-29T08:15:16.923Z,2.22
2023-03-29T08:18:59.576Z,2.00
2023-03-29T08:22:41.542Z,1.90
2023-03-29T08:26:23.280Z,1.42
2023-03-29T08:30:08.069Z,1.70
2023-03-29T08:33:49.801Z,2.42
2023-03-29T08:37:32.610Z,2.55
2023-03-29T08:41:36.643Z,2.42
2023-03-29T08:45:51.061Z,2.95
2023-03-29T08:49:35.248Z,1.95
2023-03-29T08:53:25.784Z,3.92
2023-03-29T08:57:17.001Z,3.33
2023-03-29T09:01:01.510Z,4.55
2023-03-29T09:04:43.778Z,4.15
2023-03-29T09:08:26.050Z,5.40
2023-03-29T09:12:11.454Z,5.40
2023-03-29T09:16:06.729Z,4.10
2023-03-29T09:20:19.861Z,4.88
2023-03-29T09:24:15.631Z,5.78
2023-03-29T09:28:12.614Z,8.13
2023-03-29T09:31:56.217Z,6.55
2023-03-29T09:35:44.989Z,4.50
2023-03-29T09:39:28.238Z,4.53
2023-03-29T09:43:14.108Z,3.85
2023-03-29T09:47:08.511Z,2.95
2023-03-29T09:50:51.624Z,5.50
2023-03-29T09:58:20.026Z,3.70
2023-03-29T10:02:07.681Z,3.50
2023-03-29T10:05:53.280Z,3.78
2023-03-29T10:09:35.632Z,4.60
2023-03-29T10:13:23.266Z,5.80
2023-03-29T10:17:13.868Z,5.97
2023-03-29T10:21:02.727Z,6.55
2023-03-29T10:24:51.651Z,6.70
2023-03-29T10:28:36.533Z,4.68
2023-03-29T10:32:27.767Z,3.22
2023-03-29T10:36:15.602Z,4.97
2023-03-29T10:39:58.183Z,6.90
2023-03-29T10:43:45.386Z,12.27
2023-03-29T10:47:34.234Z,6.40
2023-03-29T10:51:18.010Z,6.68
2023-03-29T10:55:00.410Z,5.47
2023-03-29T10:59:14.339Z,5.95
2023-03-29T11:03:16.223Z,5.70
2023-03-29T11:07:29.770Z,10.63
2023-03-29T11:11:36.615Z,9.85
2023-03-29T11:15:48.050Z,9.80
2023-03-29T11:19:46.730Z,10.32
2023-03-29T11:23:49.855Z,5.78
2023-03-29T11:27:43.917Z,7.18
2023-03-29T11:31:40.958Z,6.93
2023-03-29T11:35:42.675Z,7.32
2023-03-29T11:40:15.385Z,4.97
2023-03-29T11:44:15.891Z,6.32
2023-03-29T11:48:00.337Z,5.30
2023-03-29T11:51:48.892Z,8.60
2023-03-29T11:55:35.581Z,7.28
2023-03-29T11:59:31.465Z,7.05
2023-03-29T12:03:38.577Z,9.63
2023-03-29T12:07:44.197Z,7.53
2023-03-29T12:11:48.485Z,9.20
2023-03-29T12:15:35.451Z,7.53
2023-03-29T12:19:31.185Z,10.93
2023-03-29T12:23:17.661Z,11.48
2023-03-29T12:27:30.287Z,8.95
2023-03-29T12:31:24.466Z,9.90
2023-03-29T12:35:26.228Z,10.20
2023-03-29T12:39:19.358Z,10.15
2023-03-29T12:43:07.750Z,7.95
2023-03-29T12:46:58.113Z,8.40
2023-03-29T12:50:52.397Z,9.82
2023-03-29T12:54:37.508Z,8.38
2023-03-29T12:58:43.009Z,4.82
2023-03-29T13:02:27.383Z,7.28
2023-03-29T13:06:11.345Z,7.15
2023-03-29T13:10:09.360Z,6.55
2023-03-29T13:13:52.339Z,7.88
2023-03-29T13:17:44.253Z,9.48
2023-03-29T13:21:41.483Z,7.82
2023-03-29T13:25:44.541Z,10.05
2023-03-29T13:29:47.839Z,7.93
2023-03-29T13:37:32.300Z,8.73
2023-03-29T13:41:31.770Z,5.55
2023-03-29T13:45:29.659Z,4.50
2023-03-29T13:49:32.199Z,6.13
2023-03-29T13:53:53.409Z,7.13
2023-03-29T13:57:37.704Z,4.22
2023-03-29T14:01:26.154Z,4.63
2023-03-29T14:05:12.407Z,5.07
2023-03-29T14:08:55.271Z,4.15
2023-03-29T14:12:41.705Z,3.38
2023-03-29T14:16:28.270Z,8.32
2023-03-29T14:20:18.486Z,4.57
2023-03-29T14:24:02.175Z,7.28
2023-03-29T14:27:44.305Z,4.45
2023-03-29T14:31:31.215Z,7.13
2023-03-29T14:35:13.007Z,6.47
2023-03-29T14:39:02.862Z,6.20
2023-03-29T14:42:46.606Z,7.15
2023-03-29T14:46:28.725Z,7.00
2023-03-29T14:50:28.524Z,7.43
2023-03-29T14:54:20.866Z,12.93
2023-03-29T14:58:02.735Z,11.67
2023-03-29T15:01:44.859Z,6.90
2023-03-29T15:05:40.114Z,13.43
2023-03-29T15:09:29.838Z,13.63
2023-03-29T15:13:18.632Z,16.75
2023-03-29T15:17:23.857Z,13.70
2023-03-29T15:21:08.034Z,15.10
2023-03-29T15:24:49.893Z,13.98
2023-03-29T15:28:34.914Z,9.32
2023-03-29T15:32:24.894Z,11.88
2023-03-29T15:36:08.905Z,10.55
2023-03-29T15:39:51.037Z,12.93
2023-03-29T15:43:32.856Z,9.83
2023-03-29T15:47:15.018Z,7.95
2023-03-29T15:50:59.261Z,9.27
2023-03-29T15:54:43.784Z,12.63
2023-03-29T15:58:27.855Z,9.37
2023-03-29T16:02:16.281Z,10.90
2023-03-29T16:05:58.346Z,9.00
2023-03-29T16:09:40.329Z,12.30
2023-03-29T16:13:22.063Z,9.75
2023-03-29T16:17:04.712Z,8.10
2023-03-29T16:20:46.618Z,7.57
2023-03-29T16:24:34.056Z,8.93
2023-03-29T16:28:15.809Z,7.57
2023-03-29T16:32:00.945Z,8.63
2023-03-29T16:35:43.038Z,11.00
2023-03-29T16:39:24.867Z,7.60
2023-03-29T16:43:06.681Z,6.75
2023-03-29T16:46:48.912Z,8.95
2023-03-29T16:50:30.809Z,6.50
2023-03-29T16:54:13.660Z,8.60
2023-03-29T16:57:55.370Z,5.78
2023-03-29T17:01:37.392Z,5.55
2023-03-29T17:05:19.479Z,7.95
2023-03-29T17:09:01.309Z,4.20
2023-03-29T17:12:45.971Z,5.05
2023-03-29T17:16:29.082Z,3.05
2023-03-29T17:20:14.470Z,4.03
2023-03-29T17:23:56.285Z,3.97
2023-03-29T17:27:38.048Z,3.05
2023-03-29T17:31:19.944Z,3.00
2023-03-29T17:35:01.992Z,4.68
2023-03-29T17:38:43.809Z,4.55
2023-03-29T17:42:25.708Z,4.90
2023-03-29T17:46:07.550Z,4.85
2023-03-29T17:49:49.240Z,3.60
2023-03-29T17:53:31.174Z,4.07
2023-03-29T17:57:12.944Z,4.60
2023-03-29T18:00:54.764Z,4.47
2023-03-29T18:04:36.675Z,3.92
2023-03-29T18:08:18.925Z,4.45
2023-03-29T18:12:00.730Z,5.90
2023-03-29T18:15:45.040Z,4.82
2023-03-29T18:19:27.348Z,4.80
2023-03-29T18:23:09.072Z,4.17
2023-03-29T18:26:50.873Z,5.45
2023-03-29T18:30:32.711Z,4.47
2023-03-29T18:34:14.617Z,4.10
2023-03-29T18:37:56.352Z,4.13
2023-03-29T18:41:38.411Z,8.70
2023-03-29T18:45:21.421Z,5.45
2023-03-29T18:49:03.356Z,7.00
2023-03-29T18:52:45.373Z,6.15
2023-03-29T18:56:28.767Z,9.15
2023-03-29T19:00:13.576Z,8.82
2023-03-29T19:04:01.526Z,12.43
2023-03-29T19:07:44.073Z,16.52
2023-03-29T19:11:28.817Z,14.55
2023-03-29T19:15:11.775Z,12.00
2023-03-29T19:18:53.616Z,9.32
2023-03-29T19:22:35.792Z,13.20
2023-03-29T19:26:17.643Z,9.88
2023-03-29T19:30:05.740Z,13.63
2023-03-29T19:33:49.098Z,13.05
2023-03-29T19:37:30.964Z,12.52
2023-03-29T19:41:12.828Z,16.08
2023-03-29T19:44:54.524Z,13.35
2023-03-29T19:48:37.302Z,16.05
2023-03-29T19:52:20.228Z,22.30
2023-03-29T19:56:02.713Z,14.43
2023-03-29T19:59:44.607Z,13.77
2023-03-29T20:03:28.475Z,15.48
2023-03-29T20:07:10.425Z,16.92
2023-03-29T20:11:06.617Z,12.50
2023-03-29T20:14:48.679Z,16.75
2023-03-29T20:18:30.821Z,19.63
2023-03-29T20:22:13.048Z,14.70
2023-03-29T20:25:54.842Z,20.17
2023-03-29T20:29:36.599Z,12.13
2023-03-29T20:33:21.464Z,12.10
2023-03-29T20:37:03.603Z,13.23
2023-03-29T20:40:45.389Z,10.27
2023-03-29T20:44:28.396Z,13.80
2023-03-29T20:51:58.574Z,15.00
2023-03-29T20:55:40.307Z,16.38
2023-03-29T20:59:22.890Z,19.42
2023-03-29T21:03:04.785Z,14.77
2023-03-29T21:06:49.596Z,23.55
2023-03-29T21:10:31.572Z,15.80
2023-03-29T21:14:14.342Z,18.95
2023-03-29T21:17:56.340Z,18.88
2023-03-29T21:21:38.341Z,16.80
2023-03-29T21:25:20.136Z,16.92
2023-03-29T21:29:01.898Z,22.33
2023-03-29T21:32:43.730Z,26.25
2023-03-29T21:36:26.190Z,17.40
2023-03-29T21:40:10.524Z,16.80
2023-03-29T21:43:52.361Z,15.15
2023-03-29T21:47:34.224Z,20.25
2023-03-29T21:51:16.056Z,16.38
2023-03-29T21:54:57.820Z,16.83
2023-03-29T21:58:39.638Z,19.35
2023-03-29T22:02:21.498Z,21.88
2023-03-29T22:06:07.974Z,17.73
2023-03-29T22:09:49.749Z,15.13
2023-03-29T22:13:31.492Z,22.17
2023-03-29T22:17:13.537Z,17.83
2023-03-29T22:20:55.541Z,19.48
2023-03-29T22:24:37.308Z,20.55
2023-03-29T22:28:19.132Z,16.60
2023-03-29T22:32:01.030Z,21.98
2023-03-29T22:35:42.801Z,17.55
2023-03-29T22:39:24.610Z,23.95
2023-03-29T22:43:06.349Z,23.25
2023-03-29T22:46:48.104Z,25.45
2023-03-29T22:50:29.853Z,13.88
2023-03-29T22:54:12.047Z,19.08
2023-03-29T22:57:53.808Z,18.23
2023-03-29T23:01:35.845Z,26.02
2023-03-29T23:05:17.616Z,29.42
2023-03-29T23:08:59.383Z,33.25
2023-03-29T23:12:42.926Z,22.70
2023-03-29T23:16:25.281Z,25.95
2023-03-29T23:20:08.791Z,23.43
2023-03-29T23:23:50.864Z,28.52
2023-03-29T23:27:33.086Z,20.55
2023-03-29T23:31:18.135Z,18.50
2023-03-29T23:35:00.293Z,22.42
2023-03-29T23:38:44.422Z,25.88
2023-03-29T23:42:26.257Z,26.17
2023-03-29T23:46:11.101Z,22.92
2023-03-29T23:49:53.305Z,22.23
2023-03-29T23:53:35.159Z,23.97
2023-03-29T23:57:16.971Z,22.58
